Time;durP1;ratioP1;P1;durP2;ratioP2;P2;SDS_P1;SDS_P2;PMS_P1;PMS_P2;Temp;Humidity;BMP_temperature;BMP_pressure;BME280_temperature;BME280_humidity;BME280_pressure;Samples;Min_cycle;Max_cycle;Signal;HPM_P1;HPM_P2
2024/04/13 00:03:37;;;;;;;0.52;0.25;;;;;;;14.52;70.53;102086.84;16902233;26;19995;-51
2024/04/13 00:11:13;;;;;;;0.10;0.10;;;;;;;14.33;72.02;102095.69;16901749;26;20361;-52
2024/04/13 00:18:53;;;;;;;0.00;0.00;;;;;;;14.45;71.37;102086.78;16911231;26;19998;-50
2024/04/13 00:26:28;;;;;;;0.10;0.10;;;;;;;14.33;71.75;102074.91;16910952;26;20727;-51
2024/04/13 00:34:06;;;;;;;0.00;0.00;;;;;;;14.35;71.25;102072.81;16886511;26;20007;-52
2024/04/13 00:41:42;;;;;;;0.10;0.10;;;;;;;14.25;71.35;102067.81;16847681;26;20038;-52
2024/04/13 00:49:21;;;;;;;0.52;0.43;;;;;;;14.45;71.22;102048.97;16906399;26;20500;-50
2024/04/13 00:57:02;;;;;;;0.15;0.15;;;;;;;14.44;71.40;102047.31;16892931;26;20010;-51
2024/04/13 01:04:40;;;;;;;0.20;0.17;;;;;;;14.35;71.82;102051.22;16909466;26;20082;-52
2024/04/13 01:12:15;;;;;;;0.00;0.00;;;;;;;14.32;71.93;102056.22;16859132;26;19995;-50
2024/04/13 01:19:52;;;;;;;0.25;0.10;;;;;;;14.21;71.97;102052.22;16910300;26;20035;-52
2024/04/13 01:27:30;;;;;;;0.85;0.40;;;;;;;14.13;71.82;102061.34;16876787;26;19999;-55
2024/04/13 01:35:13;;;;;;;0.50;0.22;;;;;;;13.86;72.98;102057.69;16907130;26;19999;-50
2024/04/13 01:42:51;;;;;;;0.00;0.00;;;;;;;13.47;74.08;102036.69;16840389;26;20086;-52
2024/04/13 01:50:26;;;;;;;1.25;0.45;;;;;;;13.29;75.67;102058.78;16907919;26;20009;-53
2024/04/13 01:58:04;;;;;;;0.00;0.00;;;;;;;13.39;74.87;102061.94;16906643;26;20007;-52
2024/04/13 02:05:39;;;;;;;0.73;0.55;;;;;;;13.40;75.08;102060.91;16907026;26;19999;-52
2024/04/13 02:13:16;;;;;;;0.00;0.00;;;;;;;13.32;75.19;102063.75;16885769;26;20113;-53
2024/04/13 02:20:51;;;;;;;2.83;0.68;;;;;;;13.15;75.48;102073.13;16702172;26;20000;-50
2024/04/13 02:28:30;;;;;;;0.10;0.10;;;;;;;13.16;75.08;102074.81;16781408;26;20004;-55
2024/04/13 02:36:07;;;;;;;1.27;0.13;;;;;;;13.03;76.63;102068.25;16793027;26;19996;-54
2024/04/13 02:43:44;;;;;;;0.10;0.10;;;;;;;13.14;75.45;102068.75;16778186;26;20010;-52
2024/04/13 02:51:20;;;;;;;2.30;1.02;;;;;;;13.15;74.84;102068.59;16793413;26;20438;-50
2024/04/13 02:58:58;;;;;;;0.10;0.10;;;;;;;12.98;76.08;102059.94;16764337;26;20003;-54
2024/04/13 03:06:33;;;;;;;0.00;0.00;;;;;;;13.00;75.28;102047.06;16790794;26;20344;-53
2024/04/13 03:14:11;;;;;;;0.05;0.05;;;;;;;12.87;74.90;102041.59;16778401;21;20024;-53
2024/04/13 03:21:46;;;;;;;0.15;0.10;;;;;;;12.98;74.15;102038.38;16669474;26;20073;-52
2024/04/13 03:29:24;;;;;;;0.10;0.10;;;;;;;12.79;74.25;102047.09;16770421;26;20014;-53
2024/04/13 03:37:01;;;;;;;0.10;0.10;;;;;;;12.69;74.61;102052.81;16778291;26;20015;-48
2024/04/13 03:44:39;;;;;;;0.85;0.20;;;;;;;12.63;73.99;102050.88;16674684;26;20000;-51
2024/04/13 03:52:14;;;;;;;0.57;0.57;;;;;;;12.52;74.42;102049.53;16755882;26;20435;-50
2024/04/13 03:59:52;;;;;;;0.85;0.47;;;;;;;12.42;74.12;102051.69;16787882;26;20000;-50
2024/04/13 04:07:27;;;;;;;0.47;0.47;;;;;;;12.34;74.80;102046.41;16788923;26;20011;-49
2024/04/13 04:15:05;;;;;;;0.00;0.00;;;;;;;12.42;75.49;102040.94;16788681;26;20003;-47
2024/04/13 04:22:41;;;;;;;0.70;0.70;;;;;;;12.49;75.06;102049.06;16788846;26;20000;-51
2024/04/13 04:30:19;;;;;;;0.10;0.10;;;;;;;12.41;75.14;102047.34;16773948;26;20026;-46
2024/04/13 04:37:54;;;;;;;0.30;0.30;;;;;;;12.50;75.43;102048.06;16787021;26;20029;-48
2024/04/13 04:45:34;;;;;;;0.38;0.38;;;;;;;12.59;74.47;102043.38;16796503;26;20412;-50
2024/04/13 04:53:10;;;;;;;0.00;0.00;;;;;;;12.61;76.39;102054.78;16787337;26;20010;-51
2024/04/13 05:00:48;;;;;;;0.40;0.40;;;;;;;12.82;76.14;102057.47;16755241;26;20010;-50
2024/04/13 05:08:26;;;;;;;0.00;0.00;;;;;;;12.59;77.31;102032.59;16789870;26;19999;-47
2024/04/13 05:16:05;;;;;;;0.20;0.10;;;;;;;13.40;75.71;102054.69;16788925;26;20014;-52
2024/04/13 05:23:40;;;;;;;0.00;0.00;;;;;;;13.68;74.76;102060.91;16789099;26;19999;-52
2024/04/13 05:31:18;;;;;;;0.00;0.00;;;;;;;13.96;75.39;102060.00;16731656;26;20336;-54
2024/04/13 05:38:53;;;;;;;0.82;0.35;;;;;;;14.66;73.10;102020.16;16753399;26;20074;-53
2024/04/13 05:46:30;;;;;;;0.65;0.63;;;;;;;16.27;67.92;102056.56;16788639;26;20012;-51
2024/04/13 05:54:06;;;;;;;0.10;0.10;;;;;;;16.61;66.19;102065.31;16677369;26;19996;-50
2024/04/13 06:01:44;;;;;;;0.15;0.15;;;;;;;16.59;67.90;102068.25;16676730;26;20089;-56
2024/04/13 06:09:19;;;;;;;0.38;0.38;;;;;;;16.90;66.13;102065.78;16730868;26;20509;-50
2024/04/13 06:16:56;;;;;;;2.65;0.40;;;;;;;16.62;67.26;102058.84;16754476;26;20014;-57
2024/04/13 06:24:31;;;;;;;0.00;0.00;;;;;;;16.87;65.75;102074.34;16785757;26;20014;-57
2024/04/13 06:32:09;;;;;;;0.55;0.55;;;;;;;18.55;61.23;102061.31;16785715;26;20398;-54
2024/04/13 06:39:45;;;;;;;0.47;0.40;;;;;;;19.48;59.62;102053.56;16785775;26;20397;-57
2024/04/13 06:47:22;;;;;;;0.40;0.40;;;;;;;20.09;57.31;102038.53;16771094;26;19996;-59
2024/04/13 06:54:57;;;;;;;0.32;0.32;;;;;;;19.62;56.47;102035.94;16674576;26;20000;-57
2024/04/13 07:02:35;;;;;;;0.28;0.28;;;;;;;19.58;58.59;102037.44;16673352;26;20015;-57
2024/04/13 07:10:12;;;;;;;0.25;0.17;;;;;;;20.20;55.08;102036.88;16759841;26;20020;-55
2024/04/13 07:17:49;;;;;;;0.35;0.35;;;;;;;21.40;52.19;102024.75;16672918;26;20004;-58
2024/04/13 07:25:24;;;;;;;0.38;0.28;;;;;;;22.14;50.01;102024.38;16671199;26;20000;-56
2024/04/13 07:33:02;;;;;;;0.55;0.32;;;;;;;22.08;50.39;102026.19;16676151;26;20008;-56
2024/04/13 07:40:37;;;;;;;0.20;0.17;;;;;;;21.07;54.64;102012.75;16694928;26;20423;-59
2024/04/13 07:48:15;;;;;;;3.60;0.55;;;;;;;19.38;56.62;102013.31;16697242;26;20419;-55
2024/04/13 07:55:50;;;;;;;0.88;0.70;;;;;;;20.20;57.20;102004.16;16677143;26;20004;-58
2024/04/13 08:03:27;;;;;;;0.03;0.03;;;;;;;21.04;52.48;102007.81;16777307;26;20014;-53
2024/04/13 08:11:03;;;;;;;2.30;0.73;;;;;;;19.90;54.94;102018.81;16789204;26;20075;-57
2024/04/13 08:18:40;;;;;;;1.45;0.50;;;;;;;19.67;56.00;102010.69;16757739;26;19999;-59
2024/04/13 08:26:15;;;;;;;0.30;0.25;;;;;;;21.10;52.13;101992.34;16787781;26;20014;-59
2024/04/13 08:33:53;;;;;;;0.30;0.17;;;;;;;21.51;50.03;101998.41;16785748;26;19999;-57
2024/04/13 08:41:37;;;;;;;0.08;0.08;;;;;;;20.69;51.91;101999.03;16767429;26;20488;-52
2024/04/13 08:49:18;;;;;;;0.22;0.10;;;;;;;22.13;48.62;101989.91;16742668;26;20004;-59
2024/04/13 08:56:53;;;;;;;0.13;0.13;;;;;;;22.85;47.66;101988.66;16685808;26;20399;-53
2024/04/13 09:04:32;;;;;;;0.08;0.08;;;;;;;23.13;46.24;101993.81;16755386;26;20004;-59
2024/04/13 09:12:09;;;;;;;0.50;0.47;;;;;;;23.71;44.95;101984.84;16794051;26;20076;-56
2024/04/13 09:19:47;;;;;;;0.88;0.20;;;;;;;22.47;47.88;101993.25;16792947;26;20006;-57
2024/04/13 09:27:23;;;;;;;1.08;0.68;;;;;;;23.06;46.28;101965.00;16789413;26;20079;-59
2024/04/13 09:35:10;;;;;;;0.10;0.10;;;;;;;23.17;47.03;101958.47;16792602;26;20397;-54
2024/04/13 09:42:49;;;;;;;0.52;0.30;;;;;;;23.80;44.19;101950.31;16792434;26;20302;-58
2024/04/13 09:50:28;;;;;;;0.93;0.63;;;;;;;24.72;41.02;101942.22;16733104;26;20004;-54
2024/04/13 09:58:05;;;;;;;0.38;0.20;;;;;;;24.36;42.67;101937.56;16716267;26;20039;-58
2024/04/13 10:05:44;;;;;;;0.32;0.30;;;;;;;24.16;42.20;101934.78;16747997;26;20342;-55
2024/04/13 10:13:26;;;;;;;1.40;0.10;;;;;;;23.12;42.72;101925.59;16759537;26;20003;-58
2024/04/13 10:21:07;;;;;;;0.32;0.32;;;;;;;23.73;42.50;101917.66;16791429;26;20007;-60
2024/04/13 10:28:43;;;;;;;0.55;0.43;;;;;;;23.37;42.47;101903.81;16791617;26;20346;-58
2024/04/13 10:36:29;;;;;;;0.00;0.00;;;;;;;24.02;40.25;101901.56;16778781;26;20071;-53
2024/04/13 10:44:06;;;;;;;0.13;0.13;;;;;;;24.30;41.71;101893.91;16717349;26;20429;-60
2024/04/13 10:51:46;;;;;;;0.00;0.00;;;;;;;25.74;38.14;101890.50;16801665;26;20003;-60
2024/04/13 10:59:20;;;;;;;0.43;0.10;;;;;;;25.85;37.29;101889.34;16787871;26;20425;-57
2024/04/13 11:06:58;;;;;;;0.28;0.13;;;;;;;24.14;42.02;101893.88;16790286;26;20003;-55
2024/04/13 11:14:34;;;;;;;19.80;0.50;;;;;;;24.55;40.50;101880.19;16731541;26;20500;-59
2024/04/13 11:22:20;;;;;;;0.75;0.45;;;;;;;24.88;38.98;101872.44;16701908;26;20014;-58
2024/04/13 11:29:55;;;;;;;0.35;0.10;;;;;;;23.82;38.20;101868.59;16790056;26;20450;-59
2024/04/13 11:37:33;;;;;;;0.00;0.00;;;;;;;24.58;37.19;101834.88;16756245;26;20115;-59
2024/04/13 11:45:08;;;;;;;0.17;0.10;;;;;;;25.62;36.37;101833.09;16791640;26;20014;-57
2024/04/13 11:52:46;;;;;;;0.00;0.00;;;;;;;26.68;34.69;101824.25;16691556;26;20019;-57
2024/04/13 12:00:22;;;;;;;0.20;0.20;;;;;;;26.51;34.24;101818.38;16678112;26;19996;-59
2024/04/13 12:07:59;;;;;;;0.10;0.10;;;;;;;25.68;34.97;101811.88;16677830;26;20102;-59
2024/04/13 12:15:35;;;;;;;0.00;0.00;;;;;;;25.60;35.35;101796.81;16688279;26;20015;-57
2024/04/13 12:23:13;;;;;;;0.20;0.10;;;;;;;24.49;35.30;101807.19;16768351;26;20014;-58
2024/04/13 12:30:49;;;;;;;0.00;0.00;;;;;;;23.93;36.38;101788.81;16798351;26;20832;-59
2024/04/13 12:38:27;;;;;;;0.10;0.10;;;;;;;25.01;35.79;101783.94;16798223;26;20000;-55
2024/04/13 12:46:02;;;;;;;0.10;0.08;;;;;;;25.82;34.21;101770.81;16789053;26;20073;-58
2024/04/13 12:53:40;;;;;;;0.00;0.00;;;;;;;25.13;35.07;101759.75;16686403;26;20011;-56
2024/04/13 13:01:17;;;;;;;0.03;0.03;;;;;;;25.08;36.43;101739.69;16781172;26;19996;-57
2024/04/13 13:08:57;;;;;;;0.05;0.05;;;;;;;25.24;35.73;101749.50;16794175;26;20363;-54
2024/04/13 13:16:32;;;;;;;0.00;0.00;;;;;;;24.89;36.36;101728.50;16793613;26;20022;-59
2024/04/13 13:24:10;;;;;;;0.22;0.13;;;;;;;25.40;34.55;101723.53;16793471;26;20080;-58
2024/04/13 13:31:45;;;;;;;0.00;0.00;;;;;;;24.66;36.19;101708.81;16794079;26;20447;-56
2024/04/13 13:39:23;;;;;;;0.10;0.10;;;;;;;25.67;33.67;101697.50;16793288;26;20015;-52
2024/04/13 13:46:58;;;;;;;0.38;0.10;;;;;;;24.30;34.71;101699.91;16786904;26;20135;-51
2024/04/13 13:54:35;;;;;;;0.32;0.10;;;;;;;24.54;36.92;101685.56;16684584;26;20004;-54
2024/04/13 14:02:10;;;;;;;0.00;0.00;;;;;;;23.70;35.37;101679.72;16777514;26;20311;-47
2024/04/13 14:09:48;;;;;;;0.10;0.08;;;;;;;23.67;37.81;101674.78;16791774;26;20015;-49
2024/04/13 14:17:23;;;;;;;0.22;0.10;;;;;;;23.99;37.26;101658.00;16791364;26;20031;-52
2024/04/13 14:25:01;;;;;;;0.00;0.00;;;;;;;22.81;38.92;101662.59;16713782;26;20035;-50
2024/04/13 14:32:36;;;;;;;0.30;0.30;;;;;;;23.34;38.94;101656.94;16680417;26;20008;-50
2024/04/13 14:40:14;;;;;;;0.10;0.10;;;;;;;23.60;40.93;101641.31;16744922;26;20466;-51
2024/04/13 14:47:49;;;;;;;6.15;0.75;;;;;;;23.15;40.22;101645.69;16770129;26;20043;-49
2024/04/13 14:55:26;;;;;;;0.20;0.20;;;;;;;23.06;41.47;101642.66;16737038;26;19999;-54
2024/04/13 15:03:01;;;;;;;0.00;0.00;;;;;;;22.46;42.71;101637.84;16755085;26;20271;-50
2024/04/13 15:10:41;;;;;;;0.00;0.00;;;;;;;22.82;41.59;101622.34;16680902;26;20004;-48
2024/04/13 15:18:19;;;;;;;0.43;0.43;;;;;;;22.66;43.14;101610.53;16852369;21;20448;-48
2024/04/13 15:25:57;;;;;;;1.55;0.75;;;;;;;22.80;42.98;101600.72;16910477;26;19998;-50
2024/04/13 15:33:32;;;;;;;2.72;0.57;;;;;;;22.42;43.60;101561.75;16907173;26;19999;-49
2024/04/13 15:41:10;;;;;;;0.30;0.20;;;;;;;22.25;44.00;101579.50;16908347;26;19995;-48
2024/04/13 15:48:45;;;;;;;0.00;0.00;;;;;;;22.33;43.45;101585.25;16916353;26;20438;-49
2024/04/13 15:56:22;;;;;;;0.10;0.10;;;;;;;22.42;43.93;101580.09;16918065;26;19999;-52
2024/04/13 16:03:57;;;;;;;0.15;0.15;;;;;;;22.04;44.77;101571.16;16944927;26;20007;-49
2024/04/13 16:11:36;;;;;;;0.35;0.20;;;;;;;22.12;44.32;101567.13;16915458;26;20416;-51
2024/04/13 16:19:11;;;;;;;2.53;1.55;;;;;;;22.30;44.27;101541.22;16908035;26;20055;-48
2024/04/13 16:26:48;;;;;;;0.30;0.30;;;;;;;22.03;45.79;101536.72;16906845;26;20082;-48
2024/04/13 16:34:24;;;;;;;0.43;0.30;;;;;;;22.24;46.64;101529.44;16908425;26;19998;-47
2024/04/13 16:42:01;;;;;;;0.10;0.10;;;;;;;22.64;46.56;101514.19;16907785;26;19998;-50
2024/04/13 16:49:37;;;;;;;2.30;0.93;;;;;;;21.78;46.40;101487.44;16907654;26;20048;-47
2024/04/13 16:57:15;;;;;;;0.20;0.10;;;;;;;21.60;45.75;101488.72;16906465;26;20016;-48
2024/04/13 17:04:50;;;;;;;0.30;0.20;;;;;;;21.91;45.32;101487.72;16906389;26;20087;-48
2024/04/13 17:12:28;;;;;;;0.08;0.00;;;;;;;22.04;46.35;101478.22;16907038;26;20011;-48
2024/04/13 17:20:03;;;;;;;1.25;0.40;;;;;;;21.82;46.37;101459.31;16906034;26;20356;-49
2024/04/13 17:27:44;;;;;;;0.00;0.00;;;;;;;21.95;47.41;101455.22;16905492;26;20386;-51
2024/04/13 17:35:19;;;;;;;0.30;0.25;;;;;;;21.98;47.39;101451.97;16904780;26;19999;-48
2024/04/13 17:42:57;;;;;;;0.00;0.00;;;;;;;21.34;48.60;101403.91;16903750;26;20003;-48
2024/04/13 17:50:32;;;;;;;0.15;0.15;;;;;;;21.39;49.25;101435.88;16902949;26;20003;-48
2024/04/13 17:58:09;;;;;;;0.50;0.50;;;;;;;20.93;50.68;101412.91;16903119;26;19995;-49
2024/04/13 18:05:45;;;;;;;0.25;0.25;;;;;;;21.17;50.18;101429.69;16902589;26;20009;-49
2024/04/13 18:13:26;;;;;;;0.93;0.70;;;;;;;20.76;50.16;101397.53;16901467;26;19998;-49
2024/04/13 18:21:01;;;;;;;1.08;0.88;;;;;;;20.70;50.96;101409.47;16904876;26;20412;-55
2024/04/13 18:28:39;;;;;;;1.73;0.50;;;;;;;20.51;50.90;101408.22;16903385;26;20021;-49
2024/04/13 18:36:14;;;;;;;2.42;1.25;;;;;;;20.18;52.13;101393.72;16901978;26;20398;-49
2024/04/13 18:43:52;;;;;;;1.55;1.42;;;;;;;20.31;52.61;101381.59;16896429;26;20003;-51
2024/04/13 18:51:27;;;;;;;6.95;2.50;;;;;;;20.19;52.49;101387.22;16900659;26;20428;-48
2024/04/13 18:59:08;;;;;;;0.55;0.35;;;;;;;19.73;53.24;101375.03;16901189;26;20003;-48
2024/04/13 19:06:42;;;;;;;0.20;0.20;;;;;;;19.41;54.46;101381.16;16901856;26;20051;-47
2024/04/13 19:14:20;;;;;;;0.20;0.20;;;;;;;19.25;55.41;101373.88;16915886;26;20457;-50
2024/04/13 19:21:57;;;;;;;0.10;0.10;;;;;;;19.31;55.72;101365.53;16898322;26;20075;-48
2024/04/13 19:29:34;;;;;;;0.08;0.08;;;;;;;19.04;57.09;101368.16;16897615;26;20014;-48
2024/04/13 19:37:09;;;;;;;0.10;0.10;;;;;;;19.13;57.21;101354.97;16897448;26;20006;-47
2024/04/13 19:44:47;;;;;;;1.67;0.15;;;;;;;19.05;57.45;101341.78;16897139;26;19999;-55
2024/04/13 19:52:23;;;;;;;0.10;0.10;;;;;;;18.91;58.27;101332.34;16897991;26;20022;-46
2024/04/13 20:00:01;;;;;;;1.38;0.73;;;;;;;18.46;58.89;101298.75;16892987;26;20705;-50
2024/04/13 20:07:38;;;;;;;2.55;1.05;;;;;;;18.42;59.74;101322.09;16893185;26;20006;-48
2024/04/13 20:23:07;;;;;;;0.30;0.20;;;;;;;18.71;58.95;101295.63;16895878;26;20428;-46
2024/04/13 20:30:44;;;;;;;0.00;0.00;;;;;;;18.40;59.08;101288.88;16899463;26;20419;-49
2024/04/13 20:38:20;;;;;;;0.08;0.08;;;;;;;18.52;58.92;101280.66;16907209;26;20037;-48
2024/04/13 20:45:59;;;;;;;0.00;0.00;;;;;;;18.36;59.22;101272.25;16906556;26;19995;-50
2024/04/13 20:53:34;;;;;;;0.17;0.17;;;;;;;18.23;59.93;101263.59;16906576;26;20013;-48
2024/04/13 21:01:12;;;;;;;0.03;0.00;;;;;;;18.10;60.16;101257.47;16906670;26;20451;-47
2024/04/13 21:08:47;;;;;;;0.00;0.00;;;;;;;17.72;60.90;101251.88;16903794;26;19998;-47
2024/04/13 21:16:25;;;;;;;0.00;0.00;;;;;;;17.66;61.62;101253.69;16906249;26;20377;-49
2024/04/13 21:24:00;;;;;;;1.60;0.60;;;;;;;17.83;60.55;101251.03;16910317;26;20003;-48
2024/04/13 21:31:38;;;;;;;0.00;0.00;;;;;;;17.65;60.59;101235.75;16906805;26;20314;-47
2024/04/13 21:39:14;;;;;;;0.20;0.20;;;;;;;17.64;60.58;101225.97;16905200;26;20047;-50
2024/04/13 21:46:54;;;;;;;0.08;0.00;;;;;;;17.53;60.67;101216.84;16902719;26;20403;-47
2024/04/13 21:54:29;;;;;;;0.55;0.35;;;;;;;17.78;59.41;101205.59;16905956;26;19999;-46
2024/04/13 22:02:07;;;;;;;0.00;0.00;;;;;;;17.79;59.23;101190.94;16905155;26;19995;-49
2024/04/13 22:09:43;;;;;;;0.85;0.47;;;;;;;17.14;60.47;101179.75;16905390;26;20002;-46
2024/04/13 22:17:21;;;;;;;0.15;0.15;;;;;;;17.30;59.68;101170.84;16905913;26;19999;-46
2024/04/13 22:24:56;;;;;;;0.25;0.10;;;;;;;17.46;59.08;101161.88;16903720;26;20003;-51
2024/04/13 22:32:34;;;;;;;0.00;0.00;;;;;;;17.36;58.88;101152.75;16903916;26;20074;-53
2024/04/13 22:40:11;;;;;;;1.17;0.35;;;;;;;17.21;59.69;101137.03;16902169;26;20020;-47
2024/04/13 22:47:48;;;;;;;1.75;0.47;;;;;;;16.96;60.20;101132.78;16901697;26;20003;-48
2024/04/13 22:55:23;;;;;;;0.10;0.10;;;;;;;16.73;60.78;101122.84;16900765;26;20262;-53
2024/04/13 23:03:01;;;;;;;0.47;0.47;;;;;;;16.68;61.20;101106.44;16901232;26;20067;-50
2024/04/13 23:10:36;;;;;;;0.15;0.15;;;;;;;16.32;61.24;101062.41;16900066;26;20023;-49
2024/04/13 23:18:15;;;;;;;0.00;0.00;;;;;;;16.55;60.91;101085.06;16885526;26;20071;-48
2024/04/13 23:25:50;;;;;;;7.18;1.25;;;;;;;16.58;60.86;101081.88;16900198;26;20471;-51
2024/04/13 23:33:28;;;;;;;0.10;0.10;;;;;;;16.72;60.40;101085.16;16900068;26;20074;-52
2024/04/13 23:41:05;;;;;;;0.10;0.10;;;;;;;16.55;60.57;101082.34;16906795;26;20357;-49
2024/04/13 23:48:43;;;;;;;0.10;0.10;;;;;;;16.86;59.55;101067.50;16900147;26;20457;-46
2024/04/13 23:56:20;;;;;;;1.25;0.80;;;;;;;16.83;59.21;101058.00;16899543;26;19999;-50
